createdAt,value
2018-02-04T00:00:54.596Z,100347
2018-02-04T00:03:23.270Z,100353
2018-02-04T00:05:51.475Z,100369
2018-02-04T00:08:19.678Z,100369
2018-02-04T00:10:48.776Z,100368
2018-02-04T00:13:17.731Z,100374
2018-02-04T00:15:45.924Z,100364
2018-02-04T00:18:14.129Z,100367
2018-02-04T00:20:42.373Z,100358
2018-02-04T00:23:10.656Z,100366
2018-02-04T00:25:39.639Z,100372
2018-02-04T00:28:07.917Z,100375
2018-02-04T00:30:36.106Z,100379
2018-02-04T00:33:05.111Z,100378
2018-02-04T00:35:33.297Z,100389
2018-02-04T00:38:01.508Z,100390
2018-02-04T00:40:29.705Z,100400
2018-02-04T00:42:57.924Z,100407
2018-02-04T00:45:26.132Z,100400
2018-02-04T00:47:54.356Z,100409
2018-02-04T00:50:22.538Z,100409
2018-02-04T00:52:50.720Z,100419
2018-02-04T00:55:19.480Z,100419
2018-02-04T00:57:48.449Z,100423
2018-02-04T01:00:16.658Z,100421
2018-02-04T01:02:45.412Z,100415
2018-02-04T01:05:13.653Z,100421
2018-02-04T01:07:41.929Z,100426
2018-02-04T01:10:10.613Z,100426
2018-02-04T01:12:38.845Z,100427
2018-02-04T01:15:07.061Z,100427
2018-02-04T01:17:35.284Z,100426
2018-02-04T01:20:04.254Z,100442
2018-02-04T01:22:33.411Z,100435
2018-02-04T01:25:01.625Z,100440
2018-02-04T01:27:29.841Z,100447
2018-02-04T01:29:58.077Z,100442
2018-02-04T01:32:26.263Z,100436
2018-02-04T01:34:55.211Z,100436
2018-02-04T01:37:23.845Z,100441
2018-02-04T01:39:52.789Z,100436
2018-02-04T01:42:21.007Z,100442
2018-02-04T01:44:49.978Z,100445
2018-02-04T01:47:18.302Z,100446
2018-02-04T01:49:46.505Z,100456
2018-02-04T01:52:14.684Z,100455
2018-02-04T01:54:42.896Z,100446
2018-02-04T01:57:11.837Z,100454
2018-02-04T01:59:40.068Z,100440
2018-02-04T02:02:08.677Z,100453
2018-02-04T02:04:36.883Z,100451
2018-02-04T02:07:05.119Z,100460
2018-02-04T02:09:33.327Z,100449
2018-02-04T02:12:01.581Z,100455
2018-02-04T02:14:29.800Z,100465
2018-02-04T02:16:58.800Z,100472
2018-02-04T02:19:28.012Z,100479
2018-02-04T02:21:56.614Z,100471
2018-02-04T02:24:24.831Z,100476
2018-02-04T02:26:53.056Z,100485
2018-02-04T02:29:21.264Z,100483
2018-02-04T02:31:49.469Z,100487
2018-02-04T02:34:17.673Z,100490
2018-02-04T02:36:45.883Z,100498
2018-02-04T02:39:14.490Z,100494
2018-02-04T02:41:42.713Z,100510
2018-02-04T02:44:10.892Z,100511
2018-02-04T02:46:39.076Z,100514
2018-02-04T02:49:07.442Z,100517
2018-02-04T02:51:35.650Z,100518
2018-02-04T02:54:03.842Z,100521
2018-02-04T02:56:32.046Z,100526
2018-02-04T02:59:00.314Z,100524
2018-02-04T03:01:28.544Z,100521
2018-02-04T03:03:56.753Z,100526
2018-02-04T03:06:25.729Z,100524
2018-02-04T03:08:54.437Z,100526
2018-02-04T03:11:23.428Z,100530
2018-02-04T03:13:52.381Z,100527
2018-02-04T03:16:20.609Z,100543
2018-02-04T03:18:48.813Z,100537
2018-02-04T03:21:17.041Z,100540
2018-02-04T03:23:46.021Z,100547
2018-02-04T03:26:14.993Z,100548
2018-02-04T03:28:43.275Z,100549
2018-02-04T03:31:11.459Z,100556
2018-02-04T03:33:40.434Z,100553
2018-02-04T03:36:08.656Z,100555
2018-02-04T03:38:36.860Z,100548
2018-02-04T03:41:05.072Z,100565
2018-02-04T03:43:34.093Z,100564
2018-02-04T03:46:02.568Z,100563
2018-02-04T03:48:30.744Z,100568
2018-02-04T03:50:58.941Z,100571
2018-02-04T03:53:27.144Z,100577
2018-02-04T03:55:55.373Z,100587
2018-02-04T03:58:23.620Z,100595
2018-02-04T04:00:52.578Z,100610
2018-02-04T04:03:20.934Z,100619
2018-02-04T04:05:49.252Z,100619
2018-02-04T04:08:17.455Z,100615
2018-02-04T04:10:45.697Z,100615
2018-02-04T04:13:13.903Z,100624
2018-02-04T04:15:42.085Z,100621
2018-02-04T04:18:10.340Z,100635
2018-02-04T04:20:39.312Z,100640
2018-02-04T04:23:07.545Z,100640
2018-02-04T04:25:35.748Z,100647
2018-02-04T04:28:04.056Z,100648
2018-02-04T04:30:33.086Z,100652
2018-02-04T04:33:01.287Z,100660
2018-02-04T04:35:29.496Z,100661
2018-02-04T04:37:58.440Z,100659
2018-02-04T04:40:26.745Z,100664
2018-02-04T04:42:54.924Z,100674
2018-02-04T04:45:23.916Z,100673
2018-02-04T04:47:52.913Z,100689
2018-02-04T04:50:21.920Z,100682
2018-02-04T04:52:50.904Z,100682
2018-02-04T04:55:19.858Z,100694
2018-02-04T04:57:48.069Z,100694
2018-02-04T05:00:17.040Z,100699
2018-02-04T05:02:45.269Z,100709
2018-02-04T05:05:13.485Z,100704
2018-02-04T05:07:41.749Z,100708
2018-02-04T05:10:09.953Z,100711
2018-02-04T05:12:38.954Z,100715
2018-02-04T05:15:07.204Z,100712
2018-02-04T05:17:35.409Z,100712
2018-02-04T05:20:03.617Z,100714
2018-02-04T05:22:31.821Z,100712
2018-02-04T05:25:00.019Z,100728
2018-02-04T05:27:28.304Z,100731
2018-02-04T05:29:57.065Z,100730
2018-02-04T05:32:25.282Z,100737
2018-02-04T05:34:53.511Z,100729
2018-02-04T05:37:21.727Z,100738
2018-02-04T05:39:49.980Z,100742
2018-02-04T05:42:18.980Z,100745
2018-02-04T05:44:47.202Z,100755
2018-02-04T05:47:15.412Z,100748
2018-02-04T05:49:47.237Z,100759
2018-02-04T05:52:15.560Z,100766
2018-02-04T05:54:43.776Z,100787
2018-02-04T05:57:11.960Z,100794
2018-02-04T05:59:40.220Z,100795
2018-02-04T06:02:08.449Z,100794
2018-02-04T06:04:37.403Z,100802
2018-02-04T06:07:05.620Z,100804
2018-02-04T06:09:33.887Z,100814
2018-02-04T06:12:03.257Z,100820
2018-02-04T06:14:32.082Z,100818
2018-02-04T06:17:01.093Z,100824
2018-02-04T06:19:29.286Z,100825
2018-02-04T06:21:57.529Z,100837
2018-02-04T06:24:25.712Z,100846
2018-02-04T06:26:53.909Z,100845
2018-02-04T06:29:22.137Z,100852
2018-02-04T06:31:51.109Z,100863
2018-02-04T06:34:19.349Z,100866
2018-02-04T06:36:47.552Z,100870
2018-02-04T06:39:16.879Z,100875
2018-02-04T06:41:45.858Z,100881
2018-02-04T06:44:15.108Z,100896
2018-02-04T06:46:43.343Z,100900
2018-02-04T06:49:12.312Z,100907
2018-02-04T06:51:41.077Z,100919
2018-02-04T06:54:09.318Z,100923
2018-02-04T06:56:37.541Z,100920
2018-02-04T06:59:05.756Z,100927
2018-02-04T07:01:34.227Z,100933
2018-02-04T07:04:02.498Z,100931
2018-02-04T07:06:31.479Z,100943
2018-02-04T07:09:00.468Z,100942
2018-02-04T07:11:28.729Z,100949
2018-02-04T07:13:56.956Z,100951
2018-02-04T07:16:25.241Z,100958
2018-02-04T07:18:53.476Z,100970
2018-02-04T07:21:23.183Z,100979
2018-02-04T07:23:52.148Z,100980
2018-02-04T07:26:20.788Z,100984
2018-02-04T07:28:49.130Z,100975
2018-02-04T07:31:18.336Z,100975
2018-02-04T07:33:47.305Z,100978
2018-02-04T07:36:15.556Z,100983
2018-02-04T07:38:43.861Z,100983
2018-02-04T07:41:12.658Z,100991
2018-02-04T07:43:41.641Z,100997
2018-02-04T07:46:09.880Z,100998
2018-02-04T07:48:38.068Z,100996
2018-02-04T07:51:06.266Z,101000
2018-02-04T07:53:35.264Z,101003
2018-02-04T07:56:04.239Z,101014
2018-02-04T07:58:32.733Z,101009
2018-02-04T08:01:00.982Z,101023
2018-02-04T08:03:29.186Z,101017
2018-02-04T08:05:58.145Z,101029
2018-02-04T08:08:26.360Z,101029
2018-02-04T08:10:56.032Z,101033
2018-02-04T08:13:24.240Z,101034
2018-02-04T08:15:53.237Z,101040
2018-02-04T08:18:22.209Z,101030
2018-02-04T08:20:51.220Z,101051
2018-02-04T08:23:20.188Z,101050
2018-02-04T08:25:48.466Z,101053
2018-02-04T08:28:17.280Z,101047
2018-02-04T08:30:45.548Z,101055
2018-02-04T08:33:14.497Z,101058
2018-02-04T08:35:42.721Z,101065
2018-02-04T08:38:11.516Z,101063
2018-02-04T08:40:39.700Z,101059
2018-02-04T08:43:07.924Z,101075
2018-02-04T08:45:36.117Z,101070
2018-02-04T08:48:05.090Z,101082
2018-02-04T08:50:33.316Z,101071
2018-02-04T08:53:01.541Z,101082
2018-02-04T08:55:29.784Z,101078
2018-02-04T08:57:58.000Z,101074
2018-02-04T09:00:26.977Z,101074
2018-02-04T09:02:55.284Z,101084
2018-02-04T09:05:23.590Z,101091
2018-02-04T09:07:51.789Z,101092
2018-02-04T09:10:20.519Z,101096
2018-02-04T09:12:48.727Z,101103
2018-02-04T09:15:17.145Z,101102
2018-02-04T09:17:45.365Z,101105
2018-02-04T09:20:13.617Z,101119
2018-02-04T09:22:41.844Z,101124
2018-02-04T09:25:10.052Z,101132
2018-02-04T09:27:39.020Z,101129
2018-02-04T09:30:07.273Z,101129
2018-02-04T09:32:36.395Z,101137
2018-02-04T09:35:04.605Z,101134
2018-02-04T09:37:32.849Z,101138
2018-02-04T09:40:01.029Z,101135
2018-02-04T09:42:29.240Z,101144
2018-02-04T09:44:57.492Z,101151
2018-02-04T09:47:26.459Z,101156
2018-02-04T09:49:54.676Z,101159
2018-02-04T09:52:22.853Z,101154
2018-02-04T09:54:51.104Z,101154
2018-02-04T09:57:20.054Z,101166
2018-02-04T09:59:48.304Z,101162
2018-02-04T10:02:16.539Z,101169
2018-02-04T10:04:45.495Z,101171
2018-02-04T10:07:13.706Z,101166
2018-02-04T10:09:42.672Z,101174
2018-02-04T10:12:10.904Z,101167
2018-02-04T10:14:39.089Z,101181
2018-02-04T10:17:07.996Z,101183
2018-02-04T10:19:36.288Z,101180
2018-02-04T10:22:04.504Z,101183
2018-02-04T10:24:32.767Z,101197
2018-02-04T10:27:01.093Z,101202
2018-02-04T10:29:30.112Z,101198
2018-02-04T10:31:58.323Z,101195
2018-02-04T10:34:26.514Z,101201
2018-02-04T10:36:54.734Z,101204
2018-02-04T10:39:22.923Z,101209
2018-02-04T10:41:51.905Z,101211
2018-02-04T10:44:20.909Z,101222
2018-02-04T10:46:50.085Z,101218
2018-02-04T10:49:19.064Z,101219
2018-02-04T10:51:52.792Z,101217
2018-02-04T10:54:21.797Z,101218
2018-02-04T10:56:49.992Z,101224
2018-02-04T10:59:18.212Z,101220
2018-02-04T11:01:46.683Z,101210
2018-02-04T11:04:15.584Z,101219
2018-02-04T11:06:43.800Z,101221
2018-02-04T11:09:12.068Z,101229
2018-02-04T11:11:40.316Z,101224
2018-02-04T11:14:08.518Z,101229
2018-02-04T11:16:36.733Z,101223
2018-02-04T11:19:04.956Z,101222
2018-02-04T11:21:33.938Z,101229
2018-02-04T11:24:02.885Z,101230
2018-02-04T11:26:31.089Z,101229
2018-02-04T11:28:59.472Z,101233
2018-02-04T11:31:28.017Z,101239
2018-02-04T11:33:56.228Z,101233
2018-02-04T11:36:24.436Z,101234
2018-02-04T11:38:52.672Z,101235
2018-02-04T11:41:20.888Z,101235
2018-02-04T11:43:49.104Z,101240
2018-02-04T11:46:17.336Z,101239
2018-02-04T11:48:45.581Z,101236
2018-02-04T11:51:14.560Z,101249
2018-02-04T11:53:42.772Z,101250
2018-02-04T11:56:10.973Z,101258
2018-02-04T11:58:39.181Z,101248
2018-02-04T12:01:07.955Z,101249
2018-02-04T12:03:36.169Z,101251
2018-02-04T12:06:04.423Z,101259
2018-02-04T12:08:33.413Z,101250
2018-02-04T12:11:01.720Z,101255
2018-02-04T12:13:29.946Z,101255
2018-02-04T12:15:58.134Z,101255
2018-02-04T12:18:26.436Z,101253
2018-02-04T12:20:54.630Z,101262
2018-02-04T12:23:22.840Z,101267
2018-02-04T12:25:51.132Z,101260
2018-02-04T12:28:19.365Z,101262
2018-02-04T12:30:47.584Z,101267
2018-02-04T12:33:15.812Z,101269
2018-02-04T12:35:44.028Z,101274
2018-02-04T12:38:12.328Z,101271
2018-02-04T12:40:41.348Z,101275
2018-02-04T12:43:10.041Z,101283
2018-02-04T12:45:38.236Z,101276
2018-02-04T12:48:06.449Z,101282
2018-02-04T12:50:35.453Z,101282
2018-02-04T12:53:03.664Z,101277
2018-02-04T12:55:32.047Z,101286
2018-02-04T12:58:00.244Z,101283
2018-02-04T13:00:28.464Z,101288
2018-02-04T13:02:56.702Z,101288
2018-02-04T13:05:24.914Z,101300
2018-02-04T13:07:53.301Z,101303
2018-02-04T13:10:21.492Z,101306
2018-02-04T13:12:49.681Z,101300
2018-02-04T13:15:17.892Z,101303
2018-02-04T13:17:46.858Z,101306
2018-02-04T13:20:15.144Z,101312
2018-02-04T13:22:44.119Z,101327
2018-02-04T13:25:12.345Z,101338
2018-02-04T13:27:40.600Z,101337
2018-02-04T13:30:08.812Z,101352
2018-02-04T13:32:37.053Z,101357
2018-02-04T13:35:05.311Z,101361
2018-02-04T13:37:34.393Z,101362
2018-02-04T13:40:02.592Z,101379
2018-02-04T13:42:30.838Z,101390
2018-02-04T13:44:59.029Z,101390
2018-02-04T13:47:28.011Z,101392
2018-02-04T13:49:57.898Z,101404
2018-02-04T13:52:26.089Z,101406
2018-02-04T13:54:54.285Z,101403
2018-02-04T13:57:23.484Z,101416
2018-02-04T13:59:52.432Z,101413
2018-02-04T14:02:20.629Z,101417
2018-02-04T14:04:48.852Z,101424
2018-02-04T14:07:17.060Z,101419
2018-02-04T14:09:45.293Z,101433
2018-02-04T14:12:13.548Z,101432
2018-02-04T14:14:41.759Z,101435
2018-02-04T14:17:10.776Z,101447
2018-02-04T14:19:39.392Z,101442
2018-02-04T14:22:08.797Z,101436
2018-02-04T14:24:37.797Z,101441
2018-02-04T14:27:06.044Z,101448
2018-02-04T14:29:35.016Z,101462
2018-02-04T14:32:03.226Z,101460
2018-02-04T14:34:32.236Z,101465
2018-02-04T14:37:00.451Z,101471
2018-02-04T14:39:28.666Z,101468
2018-02-04T14:41:56.909Z,101489
2018-02-04T14:44:25.136Z,101482
2018-02-04T14:46:53.370Z,101474
2018-02-04T14:49:21.648Z,101483
2018-02-04T14:51:50.695Z,101484
2018-02-04T14:54:19.429Z,101493
2018-02-04T14:56:48.420Z,101486
2018-02-04T14:59:16.637Z,101490
2018-02-04T15:01:45.424Z,101494
2018-02-04T15:04:13.632Z,101498
2018-02-04T15:06:41.964Z,101504
2018-02-04T15:09:10.181Z,101506
2018-02-04T15:11:38.515Z,101505
2018-02-04T15:14:06.702Z,101515
2018-02-04T15:16:34.886Z,101528
2018-02-04T15:19:03.106Z,101513
2018-02-04T15:21:31.304Z,101525
2018-02-04T15:23:59.614Z,101533
2018-02-04T15:26:27.873Z,101539
2018-02-04T15:28:56.041Z,101540
2018-02-04T15:31:24.251Z,101539
2018-02-04T15:33:52.476Z,101547
2018-02-04T15:36:20.706Z,101547
2018-02-04T15:38:48.893Z,101551
2018-02-04T15:41:17.179Z,101553
2018-02-04T15:43:46.152Z,101553
2018-02-04T15:46:14.361Z,101565
2018-02-04T15:48:42.568Z,101564
2018-02-04T15:51:11.004Z,101570
2018-02-04T15:53:40.000Z,101575
2018-02-04T15:56:08.976Z,101568
2018-02-04T15:58:37.984Z,101568
2018-02-04T16:01:06.190Z,101580
2018-02-04T16:03:34.372Z,101592
2018-02-04T16:06:02.686Z,101594
2018-02-04T16:08:30.892Z,101595
2018-02-04T16:10:59.116Z,101591
2018-02-04T16:13:27.844Z,101596
2018-02-04T16:15:56.205Z,101607
2018-02-04T16:18:25.165Z,101603
2018-02-04T16:20:53.358Z,101597
2018-02-04T16:23:21.716Z,101604
2018-02-04T16:25:49.900Z,101620
2018-02-04T16:28:18.080Z,101625
2018-02-04T16:30:46.292Z,101628
2018-02-04T16:33:14.725Z,101630
2018-02-04T16:35:42.955Z,101620
2018-02-04T16:38:11.141Z,101636
2018-02-04T16:40:39.382Z,101638
2018-02-04T16:43:07.622Z,101632
2018-02-04T16:45:35.856Z,101640
2018-02-04T16:48:04.049Z,101650
2018-02-04T16:50:32.232Z,101644
2018-02-04T16:53:00.455Z,101648
2018-02-04T16:55:28.724Z,101658
2018-02-04T16:57:58.301Z,101651
2018-02-04T17:00:26.664Z,101661
2018-02-04T17:02:54.880Z,101672
2018-02-04T17:05:23.117Z,101660
2018-02-04T17:07:51.341Z,101667
2018-02-04T17:10:19.825Z,101671
2018-02-04T17:12:48.020Z,101677
2018-02-04T17:15:16.201Z,101677
2018-02-04T17:17:44.405Z,101687
2018-02-04T17:20:12.868Z,101677
2018-02-04T17:22:41.126Z,101684
2018-02-04T17:25:09.330Z,101690
2018-02-04T17:27:37.542Z,101693
2018-02-04T17:30:06.212Z,101695
2018-02-04T17:32:35.212Z,101704
2018-02-04T17:35:03.401Z,101712
2018-02-04T17:37:32.213Z,101710
2018-02-04T17:40:00.428Z,101713
2018-02-04T17:42:28.800Z,101716
2018-02-04T17:44:57.088Z,101721
2018-02-04T17:47:26.064Z,101725
2018-02-04T17:49:54.298Z,101727
2018-02-04T17:52:22.517Z,101739
2018-02-04T17:54:51.513Z,101746
2018-02-04T17:57:19.724Z,101751
2018-02-04T17:59:48.816Z,101750
2018-02-04T18:02:17.760Z,101752
2018-02-04T18:04:46.052Z,101753
2018-02-04T18:07:15.035Z,101758
2018-02-04T18:09:44.036Z,101753
2018-02-04T18:12:13.051Z,101758
2018-02-04T18:14:41.301Z,101767
2018-02-04T18:17:09.597Z,101762
2018-02-04T18:19:37.804Z,101777
2018-02-04T18:22:06.240Z,101774
2018-02-04T18:24:35.236Z,101780
2018-02-04T18:27:04.231Z,101771
2018-02-04T18:29:33.307Z,101771
2018-02-04T18:32:02.289Z,101764
2018-02-04T18:34:30.516Z,101774
2018-02-04T18:36:58.831Z,101774
2018-02-04T18:39:27.025Z,101785
2018-02-04T18:41:56.752Z,101791
2018-02-04T18:44:25.824Z,101788
2018-02-04T18:46:54.023Z,101787
2018-02-04T18:49:22.233Z,101785
2018-02-04T18:51:50.624Z,101796
2018-02-04T18:54:18.813Z,101796
2018-02-04T18:56:47.125Z,101798
2018-02-04T18:59:15.360Z,101804
2018-02-04T19:01:43.545Z,101802
2018-02-04T19:04:11.733Z,101813
2018-02-04T19:06:40.918Z,101804
2018-02-04T19:09:09.100Z,101818
2018-02-04T19:11:38.058Z,101813
2018-02-04T19:14:06.264Z,101807
2018-02-04T19:16:35.236Z,101815
2018-02-04T19:19:03.541Z,101815
2018-02-04T19:21:31.728Z,101817
2018-02-04T19:24:00.171Z,101823
2018-02-04T19:26:28.381Z,101831
2018-02-04T19:28:56.593Z,101824
2018-02-04T19:31:25.181Z,101829
2018-02-04T19:33:53.396Z,101832
2018-02-04T19:36:22.401Z,101832
2018-02-04T19:38:50.590Z,101832
2018-02-04T19:41:18.842Z,101836
2018-02-04T19:43:47.094Z,101841
2018-02-04T19:46:15.283Z,101843
2018-02-04T19:48:44.262Z,101849
2018-02-04T19:51:13.286Z,101855
2018-02-04T19:53:41.478Z,101857
2018-02-04T19:56:10.229Z,101849
2018-02-04T19:58:38.935Z,101859
2018-02-04T20:01:07.736Z,101862
2018-02-04T20:03:35.973Z,101869
2018-02-04T20:06:05.005Z,101869
2018-02-04T20:08:33.216Z,101874
2018-02-04T20:11:01.458Z,101872
2018-02-04T20:13:29.664Z,101884
2018-02-04T20:15:57.879Z,101883
2018-02-04T20:18:26.124Z,101896
2018-02-04T20:20:55.098Z,101897
2018-02-04T20:23:23.289Z,101897
2018-02-04T20:25:52.325Z,101895
2018-02-04T20:28:20.529Z,101890
2018-02-04T20:30:48.837Z,101904
2018-02-04T20:33:23.482Z,101905
2018-02-04T20:35:51.692Z,101916
2018-02-04T20:38:19.888Z,101912
2018-02-04T20:40:48.192Z,101908
2018-02-04T20:46:26.758Z,101920
2018-02-04T20:48:54.973Z,101913
2018-02-04T20:51:23.165Z,101921
2018-02-04T20:53:52.164Z,101924
2018-02-04T20:56:21.166Z,101925
2018-02-04T20:58:49.354Z,101920
2018-02-04T21:01:17.565Z,101923
2018-02-04T21:03:45.758Z,101931
2018-02-04T21:06:13.986Z,101935
2018-02-04T21:08:42.218Z,101946
2018-02-04T21:11:11.218Z,101953
2018-02-04T21:13:40.221Z,101946
2018-02-04T21:16:08.488Z,101951
2018-02-04T21:18:37.625Z,101957
2018-02-04T21:21:05.848Z,101968
2018-02-04T21:23:34.816Z,101962
2018-02-04T21:26:03.045Z,101971
2018-02-04T21:28:31.656Z,101967
2018-02-04T21:30:59.964Z,101979
2018-02-04T21:33:28.228Z,101983
2018-02-04T21:35:56.448Z,101987
2018-02-04T21:38:24.710Z,101974
2018-02-04T21:40:53.170Z,101986
2018-02-04T21:43:21.356Z,101988
2018-02-04T21:45:50.328Z,101985
2018-02-04T21:48:18.562Z,101987
2018-02-04T21:50:46.776Z,101996
2018-02-04T21:53:15.010Z,101995
2018-02-04T21:55:43.220Z,101996
2018-02-04T21:58:11.502Z,101998
2018-02-04T22:00:39.708Z,101997
2018-02-04T22:03:07.968Z,102000
2018-02-04T22:05:36.945Z,102005
2018-02-04T22:08:05.156Z,102000
2018-02-04T22:10:33.370Z,102002
2018-02-04T22:13:01.774Z,102004
2018-02-04T22:15:30.001Z,102011
2018-02-04T22:17:58.200Z,102011
2018-02-04T22:20:26.416Z,102016
2018-02-04T22:22:55.594Z,102018
2018-02-04T22:25:24.577Z,102026
2018-02-04T22:27:52.836Z,102016
2018-02-04T22:30:21.047Z,102023
2018-02-04T22:32:50.002Z,102025
2018-02-04T22:35:18.232Z,102020
2018-02-04T22:37:46.444Z,102024
2018-02-04T22:40:14.657Z,102023
2018-02-04T22:42:43.656Z,102030
2018-02-04T22:45:11.868Z,102027
2018-02-04T22:47:40.080Z,102022
2018-02-04T22:50:08.405Z,102031
2018-02-04T22:52:36.585Z,102040
2018-02-04T22:55:04.764Z,102037
2018-02-04T22:57:33.009Z,102043
2018-02-04T23:00:01.571Z,102039
2018-02-04T23:02:29.796Z,102045
2018-02-04T23:04:58.012Z,102057
2018-02-04T23:07:26.993Z,102047
2018-02-04T23:09:55.205Z,102050
2018-02-04T23:12:23.393Z,102050
2018-02-04T23:14:51.608Z,102058
2018-02-04T23:17:19.896Z,102057
2018-02-04T23:19:48.134Z,102055
2018-02-04T23:22:16.325Z,102050
2018-02-04T23:24:44.543Z,102061
2018-02-04T23:27:12.794Z,102063
2018-02-04T23:29:41.015Z,102072
2018-02-04T23:32:09.265Z,102073
2018-02-04T23:34:37.497Z,102068
2018-02-04T23:37:05.685Z,102069
2018-02-04T23:39:33.873Z,102065
2018-02-04T23:42:02.900Z,102075
2018-02-04T23:44:31.128Z,102071
2018-02-04T23:47:01.062Z,102073
2018-02-04T23:49:29.293Z,102070
2018-02-04T23:51:57.704Z,102069
2018-02-04T23:54:26.700Z,102076
2018-02-04T23:56:55.665Z,102089
2018-02-04T23:59:23.898Z,102080
